Manchester, Kansas
Current Conditions -  °F | °C
As of 9:58 AM on Thursday 29 Jan 2015 (Local Time) from KFRI Reporting Station
Overcast Overcast  
Wind Chill: 35°   Ceiling: 3000
Heat Index: 41°   Visibility: 10mi
Dew Point: 29°   Wind: 9mph
Humidity: 63%   Direction: 350°N
Pressure: 30.4"   Gusts: NA
Location:  39.0421°N, 97.1702°W
Report Text: KFRI 291558Z AUTO 35008KT 10SM BKN030 OVC035 05/M01 A3040 RMK AO2 PK WND 01026/1458 SLP296 T00511014
Loading
Personal Weather Stations






























Interactive Weather Map New forecast layout! Learn more

10-Day Weather Forecast

Advertisements
Track Severe Weather on mobile